Time;durP1;ratioP1;P1;durP2;ratioP2;P2;SDS_P1;SDS_P2;PMS_P1;PMS_P2;Temp;Humidity;BMP_temperature;BMP_pressure;BME280_temperature;BME280_humidity;BME280_pressure;Samples;Min_cycle;Max_cycle;Signal;HPM_P1;HPM_P2
2021/03/09 00:02:05;;;;;;;6.47;3.47;;;;;;;-6.05;100.00;101487.56;5069138;28;20241;-71
2021/03/09 00:04:31;;;;;;;5.60;3.10;;;;;;;-6.04;100.00;101485.91;5061838;28;20433;-71
2021/03/09 00:06:57;;;;;;;5.13;2.70;;;;;;;-5.91;100.00;101483.19;5065413;28;20543;-71
2021/03/09 00:09:23;;;;;;;5.10;3.17;;;;;;;-5.87;100.00;101479.16;5066228;28;20700;-71
2021/03/09 00:11:50;;;;;;;5.77;2.80;;;;;;;-5.98;100.00;101488.75;5043510;28;20198;-71
2021/03/09 00:14:16;;;;;;;5.40;2.80;;;;;;;-6.25;100.00;101490.66;5060866;28;20849;-71
2021/03/09 00:16:42;;;;;;;3.43;2.93;;;;;;;-6.21;100.00;101483.28;5062442;28;20461;-71
2021/03/09 00:19:09;;;;;;;5.50;3.07;;;;;;;-5.99;100.00;101487.88;5063549;28;20289;-71
2021/03/09 00:21:35;;;;;;;5.77;3.20;;;;;;;-5.90;100.00;101484.94;5063295;28;20183;-71
2021/03/09 00:24:01;;;;;;;7.63;3.40;;;;;;;-6.03;100.00;101487.63;5045603;28;20578;-71
2021/03/09 00:26:27;;;;;;;5.60;3.27;;;;;;;-5.99;100.00;101480.28;5062802;28;20444;-72
2021/03/09 00:28:54;;;;;;;5.63;3.70;;;;;;;-6.30;100.00;101487.84;5058666;28;20589;-71
2021/03/09 00:31:20;;;;;;;7.23;3.60;;;;;;;-6.45;100.00;101490.41;5058655;28;20236;-71
2021/03/09 00:33:46;;;;;;;8.63;4.03;;;;;;;-6.58;99.76;101490.50;5060539;28;20480;-71
2021/03/09 00:36:11;;;;;;;5.73;3.53;;;;;;;-6.33;100.00;101490.22;5066049;28;20186;-71
2021/03/09 00:38:37;;;;;;;6.23;3.83;;;;;;;-6.21;100.00;101488.34;5066264;28;20771;-71
2021/03/09 00:41:04;;;;;;;8.43;4.40;;;;;;;-6.17;100.00;101485.22;5070552;28;20245;-71
2021/03/09 00:43:29;;;;;;;9.93;3.60;;;;;;;-6.16;100.00;101484.41;5066902;28;20448;-71
2021/03/09 00:45:56;;;;;;;8.47;4.20;;;;;;;-6.24;100.00;101478.06;5063568;28;20452;-71
2021/03/09 00:48:22;;;;;;;6.90;4.13;;;;;;;-6.24;100.00;101478.06;5063020;28;20218;-71
2021/03/09 00:50:48;;;;;;;7.67;4.13;;;;;;;-6.26;100.00;101476.22;5060394;28;20461;-71
2021/03/09 00:53:14;;;;;;;10.50;4.27;;;;;;;-6.24;100.00;101475.53;5062356;28;20611;-71
2021/03/09 00:55:41;;;;;;;6.73;4.10;;;;;;;-6.01;100.00;101471.69;5071780;28;20199;-71
2021/03/09 00:58:07;;;;;;;10.33;5.27;;;;;;;-6.15;100.00;101472.63;5062346;28;20231;-71
2021/03/09 01:00:33;;;;;;;6.37;4.23;;;;;;;-6.09;100.00;101471.25;5064728;28;20469;-71
2021/03/09 01:03:00;;;;;;;9.33;4.10;;;;;;;-6.06;100.00;101467.16;5068339;28;20828;-71
2021/03/09 01:05:26;;;;;;;8.43;4.33;;;;;;;-6.02;100.00;101462.31;5063166;28;20194;-71
2021/03/09 01:07:52;;;;;;;7.40;3.83;;;;;;;-6.10;100.00;101466.13;5064877;28;20465;-71
2021/03/09 01:10:19;;;;;;;9.87;4.57;;;;;;;-6.08;100.00;101467.09;5054955;28;20445;-71
2021/03/09 01:12:45;;;;;;;8.73;4.60;;;;;;;-6.20;100.00;101458.78;5063258;28;20462;-71
2021/03/09 01:15:12;;;;;;;10.13;4.97;;;;;;;-6.16;100.00;101464.09;5061954;28;20450;-71
2021/03/09 01:17:38;;;;;;;8.83;4.13;;;;;;;-6.22;100.00;101456.16;5071010;28;20507;-71
2021/03/09 01:20:07;;;;;;;7.33;3.90;;;;;;;-6.26;100.00;101459.34;5064543;28;20832;-71
2021/03/09 01:22:34;;;;;;;8.03;4.20;;;;;;;-6.36;100.00;101450.31;5066264;28;20588;-71
2021/03/09 01:25:00;;;;;;;7.73;4.00;;;;;;;-6.25;100.00;101452.59;5062328;28;20454;-71
2021/03/09 01:27:26;;;;;;;9.13;4.30;;;;;;;-6.21;100.00;101454.50;5056421;28;20457;-71
2021/03/09 01:29:52;;;;;;;6.83;4.13;;;;;;;-6.28;100.00;101446.56;5062065;28;20482;-71
2021/03/09 01:32:18;;;;;;;7.60;4.23;;;;;;;-6.43;100.00;101444.84;5065477;28;20468;-71
2021/03/09 01:34:44;;;;;;;6.80;4.30;;;;;;;-6.39;100.00;101441.66;5058581;28;20285;-71
2021/03/09 01:37:11;;;;;;;8.27;4.03;;;;;;;-6.57;100.00;101444.91;5059118;28;20195;-71
2021/03/09 01:39:36;;;;;;;7.70;4.73;;;;;;;-6.67;100.00;101451.13;5064576;28;20217;-71
2021/03/09 01:42:03;;;;;;;8.73;4.93;;;;;;;-6.53;100.00;101435.81;5061067;28;20882;-71
2021/03/09 01:44:29;;;;;;;7.27;4.77;;;;;;;-6.49;100.00;101438.63;5063158;28;20285;-71
2021/03/09 01:46:58;;;;;;;6.87;4.50;;;;;;;-6.42;100.00;101431.34;5054319;28;20465;-71
2021/03/09 01:49:24;;;;;;;9.30;4.87;;;;;;;-6.34;100.00;101430.09;5073728;28;20469;-71
2021/03/09 01:51:51;;;;;;;12.80;4.70;;;;;;;-6.37;100.00;101430.78;5065417;28;20455;-71
2021/03/09 01:54:19;;;;;;;6.97;4.10;;;;;;;-6.40;100.00;101427.22;5064470;28;20453;-71
2021/03/09 01:56:45;;;;;;;9.80;5.07;;;;;;;-6.47;100.00;101421.81;5059810;28;20453;-71
2021/03/09 01:59:13;;;;;;;7.07;4.10;;;;;;;-6.38;100.00;101418.03;5060918;28;20465;-71
2021/03/09 02:01:39;;;;;;;7.43;4.30;;;;;;;-6.36;100.00;101419.88;5067826;28;20477;-71
2021/03/09 02:04:05;;;;;;;7.43;4.47;;;;;;;-6.39;100.00;101421.34;5061816;28;20490;-71
2021/03/09 02:06:34;;;;;;;7.63;4.50;;;;;;;-6.41;100.00;101415.34;5056052;28;20252;-71
2021/03/09 02:09:00;;;;;;;7.60;4.60;;;;;;;-6.50;100.00;101411.50;5062226;28;21566;-71
2021/03/09 02:11:43;;;;;;;8.20;4.53;;;;;;;-6.40;100.00;101410.34;5056212;28;20856;-71
2021/03/09 02:14:16;;;;;;;11.43;4.73;;;;;;;-6.41;100.00;101407.72;5060752;28;20567;-71
2021/03/09 02:16:54;;;;;;;7.10;4.20;;;;;;;-6.35;100.00;101413.13;5061431;28;20445;-71
2021/03/09 02:19:45;;;;;;;7.50;4.90;;;;;;;-6.38;100.00;101406.22;5059420;28;20469;-71
2021/03/09 02:22:28;;;;;;;7.53;4.20;;;;;;;-6.51;100.00;101399.59;5066551;28;21067;-71
2021/03/09 02:25:12;;;;;;;7.40;3.77;;;;;;;-6.43;100.00;101401.69;5065893;28;20963;-71
2021/03/09 02:27:57;;;;;;;7.27;4.07;;;;;;;-6.69;100.00;101398.56;5067493;28;20476;-71
2021/03/09 02:30:29;;;;;;;6.63;4.00;;;;;;;-6.93;100.00;101398.03;5064740;28;20432;-71
2021/03/09 02:33:09;;;;;;;8.37;4.43;;;;;;;-6.99;100.00;101397.72;5047782;28;20928;-71
2021/03/09 02:35:39;;;;;;;7.10;4.33;;;;;;;-7.15;100.00;101401.03;5062238;28;20993;-71
2021/03/09 02:38:08;;;;;;;12.17;5.07;;;;;;;-6.94;100.00;101398.84;5065749;28;20510;-71
2021/03/09 02:40:35;;;;;;;7.73;4.63;;;;;;;-6.83;100.00;101394.38;5064999;28;20464;-71
2021/03/09 02:43:04;;;;;;;12.40;5.50;;;;;;;-6.97;100.00;101394.47;5060423;28;20494;-71
2021/03/09 02:45:31;;;;;;;10.43;5.50;;;;;;;-7.05;100.00;101399.09;5060599;28;20449;-71
2021/03/09 02:47:59;;;;;;;9.90;5.47;;;;;;;-7.11;100.00;101398.75;5064044;28;20470;-71
2021/03/09 02:50:27;;;;;;;10.63;6.00;;;;;;;-7.08;100.00;101398.94;5062849;28;20581;-71
2021/03/09 02:52:57;;;;;;;10.73;6.40;;;;;;;-7.02;100.00;101388.25;5054331;28;20545;-71
2021/03/09 02:55:25;;;;;;;10.23;5.77;;;;;;;-7.13;100.00;101390.19;5058038;28;20538;-71
2021/03/09 02:57:53;;;;;;;11.93;6.40;;;;;;;-7.18;100.00;101390.69;5070490;28;20457;-71
2021/03/09 03:00:20;;;;;;;11.70;6.10;;;;;;;-7.32;100.00;101389.91;5064751;28;20480;-71
2021/03/09 03:02:47;;;;;;;10.07;6.00;;;;;;;-7.11;100.00;101392.81;5064587;28;20446;-71
2021/03/09 03:05:14;;;;;;;12.73;5.90;;;;;;;-7.20;100.00;101387.22;5068451;28;20451;-71
2021/03/09 03:07:41;;;;;;;10.60;5.70;;;;;;;-7.12;100.00;101384.34;5067400;28;21319;-71
2021/03/09 03:10:13;;;;;;;10.43;5.67;;;;;;;-7.04;100.00;101385.63;5063297;28;21023;-71
2021/03/09 03:12:40;;;;;;;12.27;6.00;;;;;;;-6.92;100.00;101385.47;5063045;28;20552;-71
2021/03/09 03:15:09;;;;;;;10.67;5.70;;;;;;;-6.88;100.00;101383.97;5061143;28;20495;-71
2021/03/09 03:17:36;;;;;;;7.97;5.57;;;;;;;-6.87;100.00;101384.06;5074282;28;20471;-71
2021/03/09 03:20:06;;;;;;;9.43;6.30;;;;;;;-6.90;100.00;101388.94;5061438;28;20477;-71
2021/03/09 03:22:33;;;;;;;11.30;6.17;;;;;;;-7.13;100.00;101384.25;5065601;28;20540;-71
2021/03/09 03:25:02;;;;;;;11.23;6.03;;;;;;;-7.16;100.00;101387.47;5068779;28;20847;-71
2021/03/09 03:27:29;;;;;;;10.93;5.53;;;;;;;-7.02;100.00;101374.72;5067336;28;20544;-71
2021/03/09 03:29:56;;;;;;;10.63;5.83;;;;;;;-6.96;100.00;101377.63;5063901;28;21110;-71
2021/03/09 03:32:22;;;;;;;10.27;5.93;;;;;;;-6.83;100.00;101385.09;5064923;28;20452;-71
2021/03/09 03:34:48;;;;;;;14.93;6.37;;;;;;;-6.94;100.00;101381.97;5065485;28;20456;-71
2021/03/09 03:37:15;;;;;;;12.93;6.47;;;;;;;-6.95;100.00;101377.66;5062449;28;20458;-71
2021/03/09 03:39:41;;;;;;;14.70;6.20;;;;;;;-6.90;100.00;101380.47;5078487;28;20479;-71
2021/03/09 03:42:07;;;;;;;9.57;5.53;;;;;;;-6.90;100.00;101376.28;5064781;28;20456;-71
2021/03/09 03:44:34;;;;;;;11.43;6.90;;;;;;;-7.09;100.00;101384.53;5072604;28;20455;-71
2021/03/09 03:47:00;;;;;;;11.10;6.20;;;;;;;-7.06;100.00;101378.72;5064829;28;20453;-71
2021/03/09 03:49:26;;;;;;;10.87;5.93;;;;;;;-6.90;100.00;101381.34;5067471;28;20826;-71
2021/03/09 03:51:59;;;;;;;9.70;5.70;;;;;;;-6.84;100.00;101391.00;5071394;28;21134;-71
2021/03/09 03:54:31;;;;;;;11.70;6.60;;;;;;;-6.86;100.00;101387.47;5057004;28;20453;-71
2021/03/09 03:57:02;;;;;;;9.47;5.47;;;;;;;-6.88;100.00;101386.50;5064112;28;20446;-71
2021/03/09 03:59:32;;;;;;;11.40;6.60;;;;;;;-6.92;100.00;101384.59;5067380;28;20472;-71
2021/03/09 04:02:01;;;;;;;10.47;6.87;;;;;;;-6.93;100.00;101381.19;5042636;28;20465;-71
2021/03/09 04:04:28;;;;;;;10.23;5.97;;;;;;;-6.93;100.00;101380.31;5062970;28;20855;-71
2021/03/09 04:06:54;;;;;;;7.63;5.40;;;;;;;-7.06;100.00;101376.19;5067943;28;20518;-71
2021/03/09 04:09:21;;;;;;;11.67;6.60;;;;;;;-7.01;100.00;101371.41;5066553;28;20478;-71
2021/03/09 04:11:49;;;;;;;10.83;6.20;;;;;;;-7.00;100.00;101366.44;5064457;28;20440;-71
2021/03/09 04:14:16;;;;;;;11.23;6.33;;;;;;;-6.95;100.00;101370.06;5064702;28;20453;-71
2021/03/09 04:16:45;;;;;;;15.17;7.00;;;;;;;-6.93;100.00;101358.38;5065572;28;20477;-71
2021/03/09 04:19:13;;;;;;;10.27;6.07;;;;;;;-6.92;100.00;101366.84;5065826;28;20471;-71
2021/03/09 04:21:42;;;;;;;9.30;5.57;;;;;;;-6.94;100.00;101358.28;5057738;28;20830;-71
2021/03/09 04:24:10;;;;;;;14.80;7.13;;;;;;;-7.08;100.00;101362.56;5066386;28;20449;-71
2021/03/09 04:26:38;;;;;;;10.43;6.60;;;;;;;-7.07;100.00;101365.19;5074774;28;20454;-71
2021/03/09 04:29:07;;;;;;;15.23;7.70;;;;;;;-7.01;100.00;101368.88;5066767;28;20465;-71
2021/03/09 04:31:33;;;;;;;12.57;6.87;;;;;;;-7.11;100.00;101358.19;5065432;28;20460;-71
2021/03/09 04:34:00;;;;;;;11.27;6.13;;;;;;;-7.07;100.00;101360.13;5061180;28;20442;-71
2021/03/09 04:36:26;;;;;;;11.60;6.83;;;;;;;-7.16;100.00;101362.13;5062587;28;20448;-71
2021/03/09 04:38:53;;;;;;;14.87;6.33;;;;;;;-7.10;100.00;101359.06;5049173;28;20473;-71
2021/03/09 04:41:19;;;;;;;11.67;7.20;;;;;;;-7.01;100.00;101367.19;5050799;28;20491;-71
2021/03/09 04:43:45;;;;;;;13.77;7.23;;;;;;;-7.11;100.00;101364.91;5062356;28;20452;-71
2021/03/09 04:46:12;;;;;;;12.60;6.70;;;;;;;-7.19;100.00;101361.06;5062678;28;20960;-71
2021/03/09 04:48:39;;;;;;;9.70;5.83;;;;;;;-7.18;100.00;101356.09;5058666;28;20476;-71
2021/03/09 04:51:10;;;;;;;10.03;6.50;;;;;;;-7.25;100.00;101356.53;5066278;28;20442;-71
2021/03/09 04:53:36;;;;;;;9.63;6.00;;;;;;;-7.12;100.00;101359.00;5066041;28;20472;-71
2021/03/09 04:56:03;;;;;;;13.47;6.27;;;;;;;-7.13;100.00;101359.75;5064787;28;20969;-71
2021/03/09 04:58:29;;;;;;;12.07;6.67;;;;;;;-7.19;100.00;101356.88;5061562;28;20461;-71
2021/03/09 05:00:56;;;;;;;11.93;6.87;;;;;;;-7.02;100.00;101360.38;5061023;28;20473;-71
2021/03/09 05:03:23;;;;;;;12.93;6.53;;;;;;;-7.10;100.00;101351.47;5060944;28;20459;-71
2021/03/09 05:05:49;;;;;;;15.87;7.37;;;;;;;-7.33;100.00;101357.75;5068004;28;20535;-71
2021/03/09 05:08:16;;;;;;;22.90;11.17;;;;;;;-7.47;100.00;101352.75;5065606;28;20490;-71
2021/03/09 05:10:41;;;;;;;19.67;9.93;;;;;;;-7.33;100.00;101355.22;5064991;28;20465;-71
2021/03/09 05:13:07;;;;;;;18.10;9.17;;;;;;;-7.10;100.00;101357.41;5060439;28;20449;-71
2021/03/09 05:15:33;;;;;;;21.63;10.43;;;;;;;-7.17;100.00;101355.31;5059928;28;20459;-71
2021/03/09 05:18:00;;;;;;;20.43;11.13;;;;;;;-7.43;100.00;101357.19;5068970;28;20488;-71
2021/03/09 05:20:27;;;;;;;24.70;12.03;;;;;;;-7.47;100.00;101352.75;5059191;28;20472;-71
2021/03/09 05:22:53;;;;;;;25.70;10.33;;;;;;;-7.14;100.00;101350.44;5065119;28;20524;-71
2021/03/09 05:25:19;;;;;;;21.00;10.83;;;;;;;-7.05;100.00;101350.06;5070199;28;20489;-71
2021/03/09 05:27:47;;;;;;;19.57;10.90;;;;;;;-7.15;100.00;101345.25;5066239;28;20218;-71
2021/03/09 05:30:15;;;;;;;27.67;10.73;;;;;;;-7.20;100.00;101346.66;5064121;28;20807;-71
2021/03/09 05:32:41;;;;;;;21.43;8.33;;;;;;;-7.03;100.00;101356.09;5063698;28;20502;-71
2021/03/09 05:35:08;;;;;;;17.20;9.70;;;;;;;-7.11;100.00;101353.09;5058794;28;20446;-71
2021/03/09 05:37:34;;;;;;;17.10;8.37;;;;;;;-7.06;100.00;101355.91;5064805;28;20473;-71
2021/03/09 05:40:01;;;;;;;19.20;8.47;;;;;;;-6.95;100.00;101352.31;5064927;28;20500;-71
2021/03/09 05:42:27;;;;;;;18.60;8.93;;;;;;;-6.84;100.00;101347.88;5063852;28;21051;-71
2021/03/09 05:44:53;;;;;;;11.90;7.07;;;;;;;-6.83;100.00;101356.34;5043621;28;20449;-71
2021/03/09 05:47:21;;;;;;;17.47;7.97;;;;;;;-6.83;100.00;101356.34;5066225;28;20547;-71
2021/03/09 05:49:47;;;;;;;17.97;7.43;;;;;;;-6.89;100.00;101354.34;5063752;28;20539;-71
2021/03/09 05:52:16;;;;;;;13.47;6.97;;;;;;;-6.86;100.00;101346.88;5062793;28;20441;-71
2021/03/09 05:54:43;;;;;;;15.20;7.80;;;;;;;-6.72;100.00;101351.09;5063340;28;20501;-71
2021/03/09 05:57:09;;;;;;;15.03;6.83;;;;;;;-6.68;100.00;101355.53;5067539;28;20444;-71
2021/03/09 05:59:35;;;;;;;14.53;7.37;;;;;;;-6.74;100.00;101352.63;5061636;28;20469;-71
2021/03/09 06:02:03;;;;;;;12.97;6.07;;;;;;;-6.70;100.00;101354.59;5063892;28;20461;-71
2021/03/09 06:04:32;;;;;;;11.37;6.13;;;;;;;-6.61;100.00;101350.78;5060451;28;20514;-71
2021/03/09 06:06:58;;;;;;;13.53;6.97;;;;;;;-6.59;100.00;101349.22;5065041;28;20449;-71
2021/03/09 06:09:38;;;;;;;13.00;5.87;;;;;;;-6.47;100.00;101345.69;5058751;28;20460;-71
2021/03/09 06:12:10;;;;;;;10.73;5.40;;;;;;;-6.32;100.00;101345.63;5067634;28;20529;-71
2021/03/09 06:14:39;;;;;;;10.13;5.77;;;;;;;-6.27;100.00;101350.97;5067126;28;21024;-71
2021/03/09 06:17:05;;;;;;;12.77;5.57;;;;;;;-6.25;100.00;101357.00;5053773;28;20453;-71
2021/03/09 06:19:40;;;;;;;14.17;7.23;;;;;;;-6.19;100.00;101358.97;5044831;28;20485;-71
2021/03/09 06:22:06;;;;;;;14.80;6.63;;;;;;;-6.14;100.00;101355.91;5062928;28;20483;-71
2021/03/09 06:24:33;;;;;;;16.43;7.07;;;;;;;-6.13;100.00;101354.25;5063580;28;20617;-71
2021/03/09 06:26:59;;;;;;;16.80;8.47;;;;;;;-6.00;100.00;101358.28;5058591;28;20225;-71
2021/03/09 06:29:26;;;;;;;18.77;9.60;;;;;;;-5.87;100.00;101353.03;5060821;28;20509;-71
2021/03/09 06:32:01;;;;;;;17.47;9.30;;;;;;;-5.73;100.00;101356.31;5056597;28;20187;-71
2021/03/09 06:34:29;;;;;;;22.20;10.33;;;;;;;-5.61;100.00;101363.66;5059469;28;20545;-71
2021/03/09 06:37:05;;;;;;;25.83;11.57;;;;;;;-5.56;100.00;101355.50;5043887;28;20444;-71
2021/03/09 06:39:52;;;;;;;21.77;10.90;;;;;;;-5.36;100.00;101358.16;5061380;28;20560;-71
2021/03/09 06:42:20;;;;;;;22.33;10.70;;;;;;;-5.26;100.00;101357.84;5059640;28;20440;-71
2021/03/09 06:44:53;;;;;;;27.67;12.87;;;;;;;-5.27;100.00;101358.63;5064377;28;20969;-71
2021/03/09 06:47:32;;;;;;;27.27;12.40;;;;;;;-5.12;100.00;101366.13;5058146;28;20452;-71
2021/03/09 06:49:58;;;;;;;33.47;15.17;;;;;;;-5.05;100.00;101368.16;5056613;28;20483;-71
2021/03/09 06:52:25;;;;;;;46.47;19.57;;;;;;;-4.88;100.00;101369.00;5062189;28;20460;-71
2021/03/09 06:54:53;;;;;;;31.80;12.73;;;;;;;-4.95;100.00;101372.91;5058717;28;20533;-71
2021/03/09 06:57:19;;;;;;;19.00;8.50;;;;;;;-4.78;100.00;101366.09;5060168;28;20428;-71
2021/03/09 06:59:48;;;;;;;25.10;11.87;;;;;;;-4.65;100.00;101376.88;5061538;28;20511;-71
2021/03/09 07:02:16;;;;;;;20.50;9.73;;;;;;;-4.61;100.00;101379.63;5057988;28;20845;-71
2021/03/09 07:04:43;;;;;;;14.50;8.37;;;;;;;-4.62;98.87;101380.44;5057911;28;20564;-71
2021/03/09 07:07:11;;;;;;;15.73;6.90;;;;;;;-4.53;99.02;101382.53;5060321;28;20463;-71
2021/03/09 07:09:38;;;;;;;14.93;6.77;;;;;;;-4.46;99.07;101379.47;5057551;28;20470;-71
2021/03/09 07:12:07;;;;;;;9.43;6.13;;;;;;;-4.47;97.23;101390.44;5056945;28;20452;-71
2021/03/09 07:14:34;;;;;;;20.03;8.67;;;;;;;-4.37;97.14;101384.13;5057620;28;20441;-71
2021/03/09 07:17:02;;;;;;;20.53;12.00;;;;;;;-4.30;98.20;101380.19;5060585;28;20453;-71
2021/03/09 07:19:37;;;;;;;16.60;7.30;;;;;;;-4.28;96.53;101387.09;5066325;28;20845;-71
2021/03/09 07:22:05;;;;;;;15.20;7.97;;;;;;;-4.21;96.08;101381.47;5055791;28;20470;-71
2021/03/09 07:24:32;;;;;;;19.10;9.30;;;;;;;-4.15;95.08;101383.47;5065721;28;20445;-71
2021/03/09 07:27:03;;;;;;;19.23;8.40;;;;;;;-4.12;94.77;101380.16;5051188;28;20489;-71
2021/03/09 07:29:35;;;;;;;13.57;7.00;;;;;;;-4.11;92.73;101385.34;5058632;28;20493;-71
2021/03/09 07:32:04;;;;;;;10.73;6.80;;;;;;;-4.03;91.37;101393.31;5056806;28;20459;-71
2021/03/09 07:34:32;;;;;;;16.37;7.57;;;;;;;-3.92;90.66;101391.25;5061216;28;20447;-71
2021/03/09 07:36:59;;;;;;;14.97;7.13;;;;;;;-3.84;90.26;101383.13;5058307;28;20489;-71
2021/03/09 07:39:25;;;;;;;9.73;6.03;;;;;;;-3.81;88.67;101390.06;5063144;28;20469;-71
2021/03/09 07:41:51;;;;;;;19.13;9.57;;;;;;;-3.69;89.80;101382.97;5058224;28;20498;-71
2021/03/09 07:44:17;;;;;;;13.53;7.33;;;;;;;-3.62;89.00;101386.66;5063818;28;20453;-71
2021/03/09 07:46:44;;;;;;;11.07;7.10;;;;;;;-3.50;89.40;101392.28;5057194;28;20484;-71
2021/03/09 07:49:12;;;;;;;14.40;8.30;;;;;;;-3.34;89.74;101385.28;5063846;28;20228;-71
2021/03/09 07:52:10;;;;;;;10.73;6.20;;;;;;;-3.28;84.58;101401.72;5065438;28;20565;-71
2021/03/09 07:54:37;;;;;;;16.13;5.90;;;;;;;-3.14;84.80;101399.75;5061166;28;20535;-71
2021/03/09 07:57:20;;;;;;;9.23;5.63;;;;;;;-2.97;86.41;101395.34;5062130;28;20443;-71
2021/03/09 07:59:54;;;;;;;13.10;5.50;;;;;;;-2.81;85.88;101388.31;5060983;28;20482;-71
2021/03/09 08:02:45;;;;;;;17.57;9.03;;;;;;;-2.63;86.93;101383.94;5060796;28;20456;-71
2021/03/09 08:08:59;;;;;;;8.40;4.67;;;;;;;-2.37;80.99;101399.44;5057803;28;20468;-71
2021/03/09 08:11:36;;;;;;;17.20;9.73;;;;;;;-2.27;78.67;101404.06;5060694;28;20433;-71
2021/03/09 08:14:20;;;;;;;9.80;5.20;;;;;;;-2.07;80.79;101392.06;5059012;28;20474;-71
2021/03/09 08:16:47;;;;;;;16.03;9.70;;;;;;;-1.93;80.46;101388.34;5060416;28;20205;-71
2021/03/09 08:19:35;;;;;;;14.53;9.77;;;;;;;-1.80;80.02;101386.22;5059086;28;20935;-71
2021/03/09 08:22:01;;;;;;;9.87;6.10;;;;;;;-1.72;79.60;101390.81;5055744;28;20218;-71
2021/03/09 08:24:50;;;;;;;7.73;5.10;;;;;;;-1.58;78.07;101395.56;5060111;28;20585;-72
2021/03/09 08:27:39;;;;;;;9.30;5.67;;;;;;;-1.52;77.58;101386.41;5066552;28;20205;-71
2021/03/09 08:30:36;;;;;;;11.77;5.87;;;;;;;-1.40;77.74;101378.28;5063093;28;20230;-71
2021/03/09 08:33:35;;;;;;;12.23;5.70;;;;;;;-1.26;75.98;101378.75;5046812;28;20291;-71
2021/03/09 08:36:22;;;;;;;8.90;4.27;;;;;;;-1.15;72.67;101392.78;5058849;28;20285;-71
2021/03/09 08:39:13;;;;;;;7.37;4.63;;;;;;;-0.98;72.48;101384.81;5064869;28;20273;-71
2021/03/09 08:41:58;;;;;;;7.80;4.23;;;;;;;-0.82;71.68;101384.50;5063312;28;20686;-71
2021/03/09 08:44:24;;;;;;;7.03;4.13;;;;;;;-0.71;71.55;101381.41;5061660;28;20285;-71
2021/03/09 08:46:52;;;;;;;8.33;4.60;;;;;;;-0.63;69.24;101385.09;5062123;28;20199;-71
2021/03/09 08:49:51;;;;;;;19.87;8.63;;;;;;;-0.47;69.19;101381.31;5063900;28;20258;-71
2021/03/09 08:52:41;;;;;;;10.17;6.03;;;;;;;-0.42;68.86;101380.63;5054890;28;20206;-71
2021/03/09 08:55:08;;;;;;;34.97;25.87;;;;;;;-0.32;68.23;101381.78;5059419;28;20195;-71
2021/03/09 08:57:35;;;;;;;21.00;14.50;;;;;;;-0.25;70.13;101380.28;5061478;28;20709;-71
2021/03/09 09:00:06;;;;;;;7.20;4.33;;;;;;;-0.18;67.07;101383.91;5063058;28;20230;-71
2021/03/09 09:02:32;;;;;;;17.33;10.70;;;;;;;-0.01;67.26;101382.69;5056837;28;20570;-71
2021/03/09 09:05:01;;;;;;;9.00;4.63;;;;;;;0.04;66.57;101373.44;5064360;28;20219;-71
2021/03/09 09:07:29;;;;;;;28.17;14.67;;;;;;;0.14;65.54;101382.25;5059352;28;20339;-71
2021/03/09 09:09:58;;;;;;;21.77;11.93;;;;;;;0.26;66.03;101381.75;5065947;28;20214;-71
2021/03/09 09:12:29;;;;;;;6.67;4.30;;;;;;;0.33;64.90;101381.94;5061735;28;20205;-71
2021/03/09 09:15:15;;;;;;;18.53;9.50;;;;;;;0.42;62.88;101389.03;5066183;28;20611;-71
2021/03/09 09:17:44;;;;;;;11.20;4.47;;;;;;;0.61;62.75;101380.13;5058972;28;20303;-71
2021/03/09 09:20:13;;;;;;;5.07;3.20;;;;;;;0.68;60.23;101386.31;5061943;28;20211;-71
2021/03/09 09:22:39;;;;;;;12.17;7.00;;;;;;;0.83;60.27;101385.88;5058145;28;20663;-71
2021/03/09 09:25:08;;;;;;;6.80;3.27;;;;;;;0.98;59.38;101387.94;5062842;28;20199;-71
2021/03/09 09:27:41;;;;;;;12.97;7.40;;;;;;;1.11;59.34;101382.28;5060470;28;20553;-71
2021/03/09 09:30:13;;;;;;;8.13;3.17;;;;;;;1.35;58.95;101386.28;5067413;28;20203;-71
2021/03/09 09:32:58;;;;;;;6.87;3.30;;;;;;;1.50;59.40;101374.66;5058315;28;20737;-71
2021/03/09 09:35:27;;;;;;;24.13;11.77;;;;;;;1.59;58.09;101381.72;5064932;28;20206;-72
2021/03/09 09:37:57;;;;;;;87.13;34.53;;;;;;;1.66;59.53;101375.00;5058721;28;20227;-71
2021/03/09 09:40:26;;;;;;;10.00;4.90;;;;;;;1.69;59.17;101380.22;5055064;28;20192;-72
2021/03/09 09:42:57;;;;;;;4.07;2.80;;;;;;;1.70;55.98;101382.81;5061006;28;20198;-72
2021/03/09 09:45:24;;;;;;;18.23;8.57;;;;;;;1.75;57.06;101377.78;5054363;28;20199;-72
2021/03/09 09:47:52;;;;;;;10.37;4.53;;;;;;;1.83;57.98;101367.63;5061352;28;21268;-71
2021/03/09 09:50:20;;;;;;;6.23;3.97;;;;;;;2.03;55.88;101373.22;5066385;28;20197;-71
2021/03/09 09:53:00;;;;;;;4.30;2.33;;;;;;;2.07;56.63;101375.03;5064866;28;20682;-72
2021/03/09 09:55:29;;;;;;;4.60;2.57;;;;;;;2.11;52.29;101387.13;5056091;28;20193;-72
2021/03/09 09:57:56;;;;;;;7.63;4.30;;;;;;;2.15;50.62;101378.63;5063855;28;20233;-72
2021/03/09 10:00:25;;;;;;;3.97;2.40;;;;;;;2.34;52.14;101378.97;5055795;28;20277;-72
2021/03/09 10:03:14;;;;;;;27.67;13.17;;;;;;;2.45;52.74;101373.22;5042630;28;20250;-72
2021/03/09 10:05:42;;;;;;;6.73;4.10;;;;;;;2.62;51.46;101377.78;5059555;28;20667;-72
2021/03/09 10:08:09;;;;;;;2.77;2.00;;;;;;;2.65;51.32;101373.56;5061547;28;20216;-71
2021/03/09 10:10:37;;;;;;;5.23;3.83;;;;;;;2.64;50.26;101373.56;5063336;28;20202;-71
2021/03/09 10:13:18;;;;;;;2.50;1.87;;;;;;;2.73;49.89;101373.72;5057270;28;20219;-71
2021/03/09 10:15:46;;;;;;;4.30;2.17;;;;;;;2.75;50.74;101366.03;5052361;28;20213;-72
2021/03/09 10:18:15;;;;;;;3.00;1.83;;;;;;;2.79;48.88;101372.97;5058212;28;20226;-72
2021/03/09 10:20:43;;;;;;;4.20;2.60;;;;;;;2.91;48.77;101373.19;5057448;28;20700;-72
2021/03/09 10:23:09;;;;;;;2.07;1.50;;;;;;;2.92;45.82;101369.78;5055488;28;20196;-72
2021/03/09 10:25:39;;;;;;;2.73;1.77;;;;;;;3.05;47.00;101370.84;5053861;28;20219;-72
2021/03/09 10:28:06;;;;;;;4.77;2.73;;;;;;;3.25;46.92;101372.88;5056223;28;20432;-72
2021/03/09 10:30:38;;;;;;;35.60;26.70;;;;;;;3.31;48.45;101363.53;5057562;28;20195;-72
2021/03/09 10:33:09;;;;;;;6.40;3.93;;;;;;;3.23;47.30;101359.97;5062678;28;20205;-72
2021/03/09 10:35:35;;;;;;;3.30;2.10;;;;;;;3.16;48.40;101351.25;5058714;28;20201;-72
2021/03/09 10:38:02;;;;;;;2.67;2.13;;;;;;;3.20;49.05;101352.16;5059972;28;20244;-72
2021/03/09 10:40:32;;;;;;;3.37;2.47;;;;;;;3.31;46.09;101349.78;5057741;28;20187;-72
2021/03/09 10:42:58;;;;;;;28.47;16.20;;;;;;;3.39;47.42;101343.00;5060103;28;20187;-72
2021/03/09 10:45:26;;;;;;;3.77;2.03;;;;;;;3.41;47.84;101355.09;5058693;28;20202;-72
2021/03/09 10:47:54;;;;;;;2.97;1.90;;;;;;;3.40;48.08;101347.34;5059315;28;20226;-72
2021/03/09 10:50:21;;;;;;;7.07;5.10;;;;;;;3.50;49.37;101340.59;5058263;28;20273;-72
2021/03/09 10:52:47;;;;;;;8.80;5.63;;;;;;;3.57;47.84;101339.81;5063371;28;20207;-72
2021/03/09 10:55:14;;;;;;;4.13;2.10;;;;;;;3.61;46.03;101336.47;5059061;28;20202;-72
2021/03/09 10:57:41;;;;;;;11.37;7.00;;;;;;;3.70;46.67;101340.88;5061394;28;20555;-72
2021/03/09 11:00:09;;;;;;;6.47;3.63;;;;;;;3.68;46.54;101334.84;5061062;28;20176;-72
2021/03/09 11:02:35;;;;;;;14.73;6.67;;;;;;;3.68;45.58;101333.13;5056250;28;20261;-72
2021/03/09 11:05:01;;;;;;;2.97;1.83;;;;;;;3.79;45.03;101334.13;5063384;28;20194;-72
2021/03/09 11:07:27;;;;;;;35.17;16.57;;;;;;;3.90;45.92;101333.41;5044371;28;20756;-72
2021/03/09 11:09:53;;;;;;;5.47;4.10;;;;;;;4.01;44.06;101329.25;5060009;28;20193;-72
2021/03/09 11:12:19;;;;;;;4.00;2.80;;;;;;;4.19;45.82;101331.19;5058515;28;20194;-72
2021/03/09 11:14:45;;;;;;;4.03;3.50;;;;;;;4.20;44.88;101335.47;5062642;28;20191;-72
2021/03/09 11:17:11;;;;;;;3.73;3.43;;;;;;;4.29;43.96;101325.28;5058278;28;20202;-72
2021/03/09 11:19:37;;;;;;;3.13;1.67;;;;;;;4.25;42.57;101338.97;5059180;28;20946;-72
2021/03/09 11:22:03;;;;;;;5.27;3.40;;;;;;;4.29;43.96;101327.84;5041409;28;20254;-72
2021/03/09 11:24:29;;;;;;;2.93;1.90;;;;;;;4.24;43.67;101334.69;5066877;28;20217;-72
2021/03/09 11:26:59;;;;;;;2.10;1.63;;;;;;;4.23;43.14;101324.31;5065838;28;20732;-72
2021/03/09 11:29:26;;;;;;;3.73;1.87;;;;;;;4.28;43.73;101328.69;5066327;28;20301;-72
2021/03/09 11:31:52;;;;;;;2.60;1.50;;;;;;;4.12;42.91;101314.75;5057986;28;20187;-72